createdAt,value
2018-02-12T00:00:01.882Z,90.27
2018-02-12T00:02:29.953Z,90.43
2018-02-12T00:04:58.329Z,90.68
2018-02-12T00:07:26.704Z,90.92
2018-02-12T00:09:55.028Z,91.10
2018-02-12T00:12:23.352Z,91.44
2018-02-12T00:14:51.669Z,91.66
2018-02-12T00:17:19.980Z,91.70
2018-02-12T00:19:48.321Z,91.69
2018-02-12T00:22:16.665Z,91.72
2018-02-12T00:24:44.993Z,91.65
2018-02-12T00:27:13.313Z,91.57
2018-02-12T00:29:41.651Z,91.56
2018-02-12T00:32:09.957Z,91.68
2018-02-12T00:34:38.268Z,91.97
2018-02-12T00:37:06.596Z,92.12
2018-02-12T00:39:34.910Z,92.34
2018-02-12T00:42:03.237Z,92.87
2018-02-12T00:44:31.644Z,93.09
2018-02-12T00:47:00.026Z,93.54
2018-02-12T00:49:28.345Z,93.69
2018-02-12T00:51:56.781Z,93.88
2018-02-12T00:54:25.161Z,94.06
2018-02-12T00:56:53.497Z,94.02
2018-02-12T00:59:21.909Z,93.98
2018-02-12T01:01:50.289Z,93.97
2018-02-12T01:04:18.597Z,93.81
2018-02-12T01:06:46.953Z,93.71
2018-02-12T01:09:15.322Z,93.75
2018-02-12T01:11:43.693Z,93.85
2018-02-12T01:14:12.029Z,93.89
2018-02-12T01:16:40.332Z,94.01
2018-02-12T01:19:08.671Z,94.03
2018-02-12T01:21:36.996Z,94.08
2018-02-12T01:24:05.377Z,94.05
2018-02-12T01:26:33.685Z,94.07
2018-02-12T01:29:02.022Z,94.47
2018-02-12T01:31:30.404Z,94.83
2018-02-12T01:33:58.737Z,95.20
2018-02-12T01:36:27.053Z,95.63
2018-02-12T01:38:55.646Z,96.18
2018-02-12T01:41:23.953Z,96.58
2018-02-12T01:43:52.301Z,96.72
2018-02-12T01:46:20.673Z,97.13
2018-02-12T01:48:49.054Z,97.56
2018-02-12T01:51:17.369Z,97.72
2018-02-12T01:53:45.805Z,97.80
2018-02-12T01:56:14.125Z,97.83
2018-02-12T01:58:42.436Z,97.67
2018-02-12T02:01:10.769Z,97.58
2018-02-12T02:03:39.086Z,97.44
2018-02-12T02:06:07.434Z,97.17
2018-02-12T02:08:35.763Z,96.89
2018-02-12T02:11:04.092Z,96.80
2018-02-12T02:13:32.508Z,96.55
2018-02-12T02:16:00.853Z,96.25
2018-02-12T02:18:29.212Z,96.12
2018-02-12T02:20:57.556Z,95.95
2018-02-12T02:23:25.874Z,96.03
2018-02-12T02:25:54.204Z,96.19
2018-02-12T02:28:22.577Z,96.41
2018-02-12T02:30:50.918Z,96.58
2018-02-12T02:33:19.333Z,96.48
2018-02-12T02:35:49.498Z,96.46
2018-02-12T02:38:17.825Z,96.43
2018-02-12T02:40:46.206Z,96.25
2018-02-12T02:43:14.577Z,96.05
2018-02-12T02:45:42.949Z,95.92
2018-02-12T02:48:11.289Z,95.96
2018-02-12T02:50:39.609Z,95.48
2018-02-12T02:53:07.954Z,95.10
2018-02-12T02:55:36.268Z,94.98
2018-02-12T02:58:04.601Z,94.90
2018-02-12T03:00:32.959Z,94.72
2018-02-12T03:03:01.393Z,94.74
2018-02-12T03:05:29.708Z,94.79
2018-02-12T03:07:58.049Z,94.86
2018-02-12T03:10:26.416Z,94.67
2018-02-12T03:12:54.810Z,94.68
2018-02-12T03:15:23.128Z,94.75
2018-02-12T03:17:51.457Z,94.85
2018-02-12T03:20:19.777Z,94.82
2018-02-12T03:22:48.213Z,94.91
2018-02-12T03:25:16.585Z,95.12
2018-02-12T03:27:44.961Z,95.20
2018-02-12T03:30:13.285Z,95.34
2018-02-12T03:32:41.717Z,95.40
2018-02-12T03:35:10.105Z,95.47
2018-02-12T03:37:38.473Z,95.32
2018-02-12T03:40:06.792Z,95.09
2018-02-12T03:42:35.242Z,95.01
2018-02-12T03:45:03.561Z,94.86
2018-02-12T03:47:31.980Z,94.79
2018-02-12T03:50:00.356Z,94.68
2018-02-12T03:52:28.695Z,94.73
2018-02-12T03:54:57.113Z,94.75
2018-02-12T03:57:25.489Z,94.52
2018-02-12T03:59:53.861Z,94.68
2018-02-12T04:02:22.245Z,94.41
2018-02-12T04:04:50.624Z,94.46
2018-02-12T04:07:18.961Z,94.56
2018-02-12T04:09:47.373Z,94.75
2018-02-12T04:12:15.754Z,94.94
2018-02-12T04:14:44.065Z,94.92
2018-02-12T04:17:12.504Z,95.15
2018-02-12T04:19:40.881Z,95.32
2018-02-12T04:22:09.221Z,95.45
2018-02-12T04:24:37.565Z,95.49
2018-02-12T04:27:05.905Z,95.70
2018-02-12T04:29:34.225Z,95.87
2018-02-12T04:32:02.666Z,95.90
2018-02-12T04:34:30.985Z,95.89
2018-02-12T04:36:59.416Z,95.87
2018-02-12T04:39:27.737Z,95.75
2018-02-12T04:41:56.178Z,95.65
2018-02-12T04:44:24.502Z,95.54
2018-02-12T04:46:52.809Z,95.39
2018-02-12T04:49:21.204Z,95.30
2018-02-12T04:51:49.524Z,95.07
2018-02-12T04:54:17.861Z,94.95
2018-02-12T04:56:46.181Z,94.92
2018-02-12T04:59:14.521Z,94.88
2018-02-12T05:01:42.842Z,94.73
2018-02-12T05:04:11.182Z,94.73
2018-02-12T05:06:39.506Z,94.83
2018-02-12T05:09:07.841Z,94.95
2018-02-12T05:11:36.158Z,95.21
2018-02-12T05:14:04.499Z,95.71
2018-02-12T05:16:32.818Z,96.06
2018-02-12T05:19:01.153Z,96.28
2018-02-12T05:21:29.469Z,96.31
2018-02-12T05:23:58.681Z,96.47
2018-02-12T05:26:26.998Z,96.85
2018-02-12T05:28:55.340Z,97.27
2018-02-12T05:31:23.657Z,97.49
2018-02-12T05:33:51.998Z,97.66
2018-02-12T05:36:20.318Z,98.03
2018-02-12T05:38:48.657Z,98.21
2018-02-12T05:41:16.979Z,98.31
2018-02-12T05:43:45.324Z,98.41
2018-02-12T05:46:14.561Z,98.47
2018-02-12T05:48:42.908Z,98.59
2018-02-12T05:51:11.222Z,98.65
2018-02-12T05:53:39.686Z,98.61
2018-02-12T05:56:08.023Z,98.64
2018-02-12T05:58:36.853Z,98.61
2018-02-12T06:01:05.170Z,98.47
2018-02-12T06:03:33.513Z,98.69
2018-02-12T06:06:01.837Z,98.22
2018-02-12T06:08:30.181Z,97.58
2018-02-12T06:10:58.521Z,97.23
2018-02-12T06:13:27.181Z,97.18
2018-02-12T06:15:56.428Z,97.36
2018-02-12T06:18:24.782Z,97.62
2018-02-12T06:20:53.109Z,97.91
2018-02-12T06:23:21.453Z,97.98
2018-02-12T06:25:49.781Z,98.07
2018-02-12T06:28:18.129Z,98.04
2018-02-12T06:30:46.453Z,97.87
2018-02-12T06:33:14.806Z,97.75
2018-02-12T06:35:43.134Z,97.57
2018-02-12T06:38:11.477Z,97.37
2018-02-12T06:40:39.806Z,97.29
2018-02-12T06:43:08.153Z,97.28
2018-02-12T06:45:36.490Z,97.20
2018-02-12T06:48:04.853Z,97.17
2018-02-12T06:50:33.206Z,97.24
2018-02-12T06:53:01.845Z,97.38
2018-02-12T06:55:30.193Z,97.51
2018-02-12T06:57:58.526Z,97.53
2018-02-12T07:00:26.881Z,97.59
2018-02-12T07:02:55.209Z,97.58
2018-02-12T07:05:23.558Z,97.61
2018-02-12T07:07:51.889Z,97.50
2018-02-12T07:10:20.237Z,97.43
2018-02-12T07:12:49.482Z,97.44
2018-02-12T07:15:17.833Z,97.51
2018-02-12T07:17:46.165Z,97.47
2018-02-12T07:20:14.517Z,97.51
2018-02-12T07:22:42.849Z,97.55
2018-02-12T07:25:11.364Z,97.52
2018-02-12T07:27:39.759Z,97.53
2018-02-12T07:30:08.089Z,97.38
2018-02-12T07:32:37.213Z,97.29
2018-02-12T07:35:05.565Z,97.09
2018-02-12T07:37:33.894Z,96.91
2018-02-12T07:40:02.257Z,96.57
2018-02-12T07:42:30.662Z,96.57
2018-02-12T07:44:59.004Z,96.60
2018-02-12T07:47:27.330Z,96.62
2018-02-12T07:49:55.688Z,96.71
2018-02-12T07:52:24.010Z,96.64
2018-02-12T07:54:52.385Z,96.75
2018-02-12T07:57:20.903Z,96.65
2018-02-12T07:59:49.229Z,96.53
2018-02-12T08:02:17.562Z,96.34
2018-02-12T08:04:45.909Z,96.19
2018-02-12T08:07:14.237Z,95.94
2018-02-12T08:09:42.589Z,96.05
2018-02-12T08:12:11.382Z,96.09
2018-02-12T08:14:39.721Z,96.14
2018-02-12T08:17:08.054Z,96.14
2018-02-12T08:19:36.400Z,96.00
2018-02-12T08:22:04.733Z,95.83
2018-02-12T08:24:33.541Z,95.84
2018-02-12T08:27:02.553Z,95.91
2018-02-12T08:29:30.884Z,95.77
2018-02-12T08:31:59.214Z,95.71
2018-02-12T08:34:27.563Z,95.40
2018-02-12T08:36:55.885Z,95.30
2018-02-12T08:39:24.239Z,95.18
2018-02-12T08:41:52.561Z,94.65
2018-02-12T08:44:20.909Z,94.35
2018-02-12T08:46:49.233Z,94.17
2018-02-12T08:49:17.579Z,93.71
2018-02-12T08:51:45.901Z,93.15
2018-02-12T08:54:14.227Z,92.55
2018-02-12T08:56:42.573Z,92.63
2018-02-12T08:59:10.897Z,92.41
2018-02-12T09:01:39.293Z,92.63
2018-02-12T09:04:10.346Z,92.00
2018-02-12T09:06:38.814Z,91.52
2018-02-12T09:09:07.233Z,90.70
2018-02-12T09:11:35.576Z,90.96
2018-02-12T09:14:03.901Z,90.57
2018-02-12T09:16:32.250Z,89.57
2018-02-12T09:19:00.569Z,90.04
2018-02-12T09:21:28.909Z,90.58
2018-02-12T09:23:57.229Z,90.97
2018-02-12T09:26:25.573Z,91.20
2018-02-12T09:28:53.900Z,91.70
2018-02-12T09:31:22.237Z,92.11
2018-02-12T09:33:50.556Z,92.86
2018-02-12T09:36:19.805Z,93.48
2018-02-12T09:38:48.125Z,93.79
2018-02-12T09:41:16.486Z,94.26
2018-02-12T09:43:44.818Z,94.59
2018-02-12T09:46:13.161Z,94.89
2018-02-12T09:48:41.480Z,94.28
2018-02-12T09:51:10.869Z,93.56
2018-02-12T09:53:40.022Z,93.06
2018-02-12T09:56:08.421Z,93.04
2018-02-12T09:58:36.740Z,93.13
2018-02-12T10:01:05.090Z,92.83
2018-02-12T10:03:33.413Z,92.47
2018-02-12T10:06:01.758Z,92.13
2018-02-12T10:08:30.077Z,92.05
2018-02-12T10:10:58.907Z,91.56
2018-02-12T10:13:27.233Z,91.09
2018-02-12T10:15:55.573Z,90.00
2018-02-12T10:18:23.893Z,89.95
2018-02-12T10:20:52.953Z,90.23
2018-02-12T10:23:21.273Z,90.09
2018-02-12T10:25:49.622Z,89.80
2018-02-12T10:28:17.937Z,89.32
2018-02-12T10:30:46.278Z,87.78
2018-02-12T10:33:14.600Z,88.69
2018-02-12T10:35:43.042Z,87.69
2018-02-12T10:38:11.358Z,87.82
2018-02-12T10:40:39.741Z,88.45
2018-02-12T10:43:08.057Z,87.51
2018-02-12T10:45:36.393Z,87.82
2018-02-12T10:48:04.791Z,88.48
2018-02-12T10:50:33.201Z,88.08
2018-02-12T10:53:01.516Z,88.92
2018-02-12T10:55:30.021Z,88.06
2018-02-12T10:57:58.321Z,88.89
2018-02-12T11:00:26.836Z,89.81
2018-02-12T11:02:55.173Z,87.88
2018-02-12T11:05:24.121Z,87.44
2018-02-12T11:07:52.438Z,86.79
2018-02-12T11:10:20.808Z,86.01
2018-02-12T11:12:51.702Z,86.22
2018-02-12T11:15:21.828Z,86.36
2018-02-12T11:17:50.444Z,86.11
2018-02-12T11:20:18.833Z,86.93
2018-02-12T11:22:52.902Z,86.10
2018-02-12T11:25:22.453Z,85.90
2018-02-12T11:27:50.794Z,85.97
2018-02-12T11:30:19.131Z,85.98
2018-02-12T11:32:47.753Z,86.43
2018-02-12T11:35:16.684Z,86.89
2018-02-12T11:37:45.137Z,86.82
2018-02-12T11:40:13.530Z,86.87
2018-02-12T11:42:41.917Z,87.03
2018-02-12T11:45:20.553Z,86.96
2018-02-12T11:47:49.110Z,86.95
2018-02-12T11:50:17.483Z,86.77
2018-02-12T11:52:45.961Z,87.55
2018-02-12T11:55:14.342Z,88.08
2018-02-12T11:57:42.838Z,88.45
2018-02-12T12:00:11.146Z,88.20
2018-02-12T12:02:39.631Z,88.41
2018-02-12T12:05:08.007Z,87.53
2018-02-12T12:07:36.590Z,87.38
2018-02-12T12:10:05.022Z,87.19
2018-02-12T12:12:33.877Z,85.95
2018-02-12T12:15:02.231Z,83.62
2018-02-12T12:17:30.753Z,82.69
2018-02-12T12:19:59.237Z,83.33
2018-02-12T12:22:27.565Z,82.71
2018-02-12T12:24:55.885Z,81.87
2018-02-12T12:27:24.353Z,81.40
2018-02-12T12:29:52.769Z,81.02
2018-02-12T12:32:21.345Z,82.02
2018-02-12T12:34:49.686Z,81.92
2018-02-12T12:37:18.137Z,81.01
2018-02-12T12:39:46.562Z,80.80
2018-02-12T12:42:14.897Z,79.78
2018-02-12T12:44:43.453Z,79.88
2018-02-12T12:47:11.909Z,79.88
2018-02-12T12:49:40.235Z,79.95
2018-02-12T12:52:08.596Z,79.28
2018-02-12T12:54:36.910Z,78.85
2018-02-12T12:57:05.309Z,78.90
2018-02-12T12:59:33.738Z,78.96
2018-02-12T13:02:02.166Z,78.88
2018-02-12T13:04:31.153Z,76.83
2018-02-12T13:06:59.525Z,78.67
2018-02-12T13:09:27.909Z,76.99
2018-02-12T13:11:56.287Z,76.05
2018-02-12T13:14:24.610Z,77.11
2018-02-12T13:16:52.994Z,75.77
2018-02-12T13:19:21.313Z,75.36
2018-02-12T13:21:49.658Z,74.64
2018-02-12T13:24:18.020Z,74.14
2018-02-12T13:26:46.341Z,72.75
2018-02-12T13:29:14.726Z,74.11
2018-02-12T13:31:43.046Z,73.05
2018-02-12T13:34:11.384Z,73.76
2018-02-12T13:36:39.709Z,73.51
2018-02-12T13:39:08.059Z,72.83
2018-02-12T13:41:36.401Z,70.89
2018-02-12T13:44:04.783Z,70.00
2018-02-12T13:46:33.097Z,69.06
2018-02-12T13:49:01.486Z,69.57
2018-02-12T13:51:29.801Z,70.08
2018-02-12T13:53:58.225Z,69.26
2018-02-12T13:56:27.484Z,69.76
2018-02-12T13:58:55.862Z,70.08
2018-02-12T14:01:24.241Z,69.66
2018-02-12T14:03:52.586Z,70.56
2018-02-12T14:06:20.909Z,70.47
2018-02-12T14:08:49.253Z,71.98
2018-02-12T14:11:17.577Z,72.24
2018-02-12T14:13:46.817Z,73.82
2018-02-12T14:16:15.156Z,73.15
2018-02-12T14:18:43.499Z,73.86
2018-02-12T14:21:11.821Z,73.57
2018-02-12T14:23:40.253Z,73.63
2018-02-12T14:26:09.501Z,73.93
2018-02-12T14:28:37.921Z,72.82
2018-02-12T14:31:06.301Z,72.58
2018-02-12T14:33:34.678Z,73.11
2018-02-12T14:36:03.977Z,73.74
2018-02-12T14:38:32.309Z,73.00
2018-02-12T14:41:00.729Z,72.38
2018-02-12T14:43:29.153Z,73.23
2018-02-12T14:45:58.513Z,72.12
2018-02-12T14:48:26.852Z,72.34
2018-02-12T14:50:55.173Z,71.43
2018-02-12T14:53:23.521Z,71.62
2018-02-12T14:55:51.913Z,73.20
2018-02-12T14:58:20.255Z,74.90
2018-02-12T15:00:49.085Z,76.22
2018-02-12T15:03:17.458Z,75.90
2018-02-12T15:05:45.832Z,77.25
2018-02-12T15:08:14.170Z,78.32
2018-02-12T15:10:42.584Z,80.35
2018-02-12T15:13:10.930Z,80.34
2018-02-12T15:15:39.259Z,80.93
2018-02-12T15:18:07.588Z,81.67
2018-02-12T15:20:36.846Z,81.67
2018-02-12T15:23:05.293Z,81.36
2018-02-12T15:25:33.613Z,80.87
2018-02-12T15:28:01.957Z,81.13
2018-02-12T15:30:30.280Z,81.16
2018-02-12T15:32:58.698Z,81.08
2018-02-12T15:35:27.235Z,80.88
2018-02-12T15:37:55.630Z,81.67
2018-02-12T15:40:24.554Z,82.38
2018-02-12T15:42:52.869Z,82.89
2018-02-12T15:45:21.241Z,83.28
2018-02-12T15:47:49.566Z,82.66
2018-02-12T15:50:17.907Z,83.03
2018-02-12T15:52:46.241Z,85.06
2018-02-12T15:55:14.565Z,86.97
2018-02-12T15:57:42.886Z,88.48
2018-02-12T16:00:11.226Z,89.88
2018-02-12T16:02:39.550Z,91.32
2018-02-12T16:05:07.933Z,92.09
2018-02-12T16:07:36.249Z,92.56
2018-02-12T16:10:04.589Z,91.69
2018-02-12T16:12:32.910Z,91.62
2018-02-12T16:15:01.246Z,91.76
2018-02-12T16:17:30.029Z,91.60
2018-02-12T16:19:58.395Z,91.53
2018-02-12T16:22:26.757Z,91.53
2018-02-12T16:24:55.093Z,92.18
2018-02-12T16:27:23.414Z,92.81
2018-02-12T16:29:51.789Z,93.75
2018-02-12T16:32:20.166Z,94.70
2018-02-12T16:34:48.541Z,95.14
2018-02-12T16:37:16.918Z,95.60
2018-02-12T16:39:45.256Z,95.43
2018-02-12T16:42:13.673Z,95.17
2018-02-12T16:44:42.049Z,95.00
2018-02-12T16:47:10.432Z,94.64
2018-02-12T16:49:38.805Z,94.35
2018-02-12T16:52:07.117Z,94.02
2018-02-12T16:54:35.563Z,93.80
2018-02-12T16:57:04.386Z,93.91
2018-02-12T16:59:32.730Z,93.80
2018-02-12T17:02:01.120Z,93.64
2018-02-12T17:04:32.009Z,93.36
2018-02-12T17:07:01.120Z,92.76
2018-02-12T17:09:31.018Z,92.42
2018-02-12T17:11:59.334Z,92.27
2018-02-12T17:14:27.668Z,92.41
2018-02-12T17:16:55.985Z,92.35
2018-02-12T17:19:24.321Z,92.31
2018-02-12T17:21:52.643Z,92.51
2018-02-12T17:24:20.997Z,92.35
2018-02-12T17:26:49.293Z,92.22
2018-02-12T17:29:17.629Z,92.24
2018-02-12T17:31:45.945Z,91.98
2018-02-12T17:34:14.286Z,91.39
2018-02-12T17:36:42.603Z,91.14
2018-02-12T17:39:11.501Z,91.22
2018-02-12T17:41:39.829Z,91.23
2018-02-12T17:44:08.149Z,91.17
2018-02-12T17:46:36.483Z,91.18
2018-02-12T17:49:04.880Z,91.22
2018-02-12T17:51:33.254Z,91.16
2018-02-12T17:54:01.570Z,91.29
2018-02-12T17:56:29.925Z,91.46
2018-02-12T17:58:59.145Z,92.34
2018-02-12T18:01:27.482Z,92.97
2018-02-12T18:03:55.806Z,93.15
2018-02-12T18:06:24.146Z,93.43
2018-02-12T18:08:52.458Z,93.75
2018-02-12T18:11:20.801Z,94.07
2018-02-12T18:13:49.122Z,94.20
2018-02-12T18:16:18.437Z,93.88
2018-02-12T18:18:46.750Z,93.36
2018-02-12T18:21:15.157Z,92.94
2018-02-12T18:23:43.498Z,93.18
2018-02-12T18:26:11.860Z,93.44
2018-02-12T18:28:40.250Z,93.41
2018-02-12T18:31:08.588Z,93.36
2018-02-12T18:33:37.001Z,93.87
2018-02-12T18:36:05.350Z,94.08
2018-02-12T18:38:34.450Z,93.72
2018-02-12T18:41:02.851Z,93.42
2018-02-12T18:43:31.225Z,93.06
2018-02-12T18:45:59.569Z,92.61
2018-02-12T18:48:27.894Z,92.85
2018-02-12T18:50:56.250Z,93.33
2018-02-12T18:53:24.721Z,93.54
2018-02-12T18:55:53.118Z,93.72
2018-02-12T18:58:21.451Z,93.49
2018-02-12T19:00:49.797Z,93.16
2018-02-12T19:03:18.117Z,93.28
2018-02-12T19:05:47.238Z,93.31
2018-02-12T19:08:15.612Z,93.42
2018-02-12T19:10:43.995Z,93.71
2018-02-12T19:13:12.321Z,93.73
2018-02-12T19:15:40.691Z,93.51
2018-02-12T19:18:09.009Z,93.34
2018-02-12T19:20:37.401Z,93.10
2018-02-12T19:23:05.773Z,92.76
2018-02-12T19:25:34.134Z,92.40
2018-02-12T19:28:02.533Z,91.93
2018-02-12T19:30:30.886Z,91.14
2018-02-12T19:32:59.290Z,90.41
2018-02-12T19:35:27.629Z,90.02
2018-02-12T19:37:55.949Z,90.69
2018-02-12T19:40:24.447Z,91.38
2018-02-12T19:42:54.065Z,91.83
2018-02-12T19:45:22.458Z,91.99
2018-02-12T19:47:50.886Z,92.01
2018-02-12T19:50:19.201Z,91.77
2018-02-12T19:52:47.552Z,91.46
2018-02-12T19:55:15.861Z,91.16
2018-02-12T19:57:44.498Z,90.60
2018-02-12T20:00:12.821Z,90.25
2018-02-12T20:02:41.246Z,90.33
2018-02-12T20:05:09.568Z,90.73
2018-02-12T20:07:38.000Z,91.23
2018-02-12T20:10:06.326Z,91.77
2018-02-12T20:12:34.670Z,92.30
2018-02-12T20:15:03.029Z,92.37
2018-02-12T20:17:31.406Z,92.43
2018-02-12T20:19:59.785Z,92.30
2018-02-12T20:22:28.135Z,91.95
2018-02-12T20:24:56.461Z,91.67
2018-02-12T20:27:24.826Z,91.34
2018-02-12T20:29:53.246Z,91.21
2018-02-12T20:32:21.565Z,91.07
2018-02-12T20:34:49.888Z,90.29
2018-02-12T20:37:22.089Z,90.23
2018-02-12T20:39:50.524Z,90.19
2018-02-12T20:42:18.874Z,90.02
2018-02-12T20:44:47.193Z,90.07
2018-02-12T20:47:15.630Z,89.94
2018-02-12T20:49:43.997Z,90.26
2018-02-12T20:52:12.342Z,90.85
2018-02-12T20:54:40.753Z,91.08
2018-02-12T20:57:09.097Z,91.41
2018-02-12T20:59:37.425Z,91.97
2018-02-12T21:02:05.772Z,92.13
2018-02-12T21:04:34.160Z,92.37
2018-02-12T21:07:02.509Z,92.52
2018-02-12T21:09:30.824Z,92.44
2018-02-12T21:11:59.162Z,92.41
2018-02-12T21:14:27.485Z,92.10
2018-02-12T21:16:55.828Z,91.44
2018-02-12T21:19:24.213Z,91.01
2018-02-12T21:21:52.593Z,90.34
2018-02-12T21:24:20.918Z,90.12
2018-02-12T21:26:49.261Z,90.20
2018-02-12T21:29:17.612Z,90.26
2018-02-12T21:31:45.962Z,89.99
2018-02-12T21:34:14.637Z,89.63
2018-02-12T21:36:43.034Z,89.83
2018-02-12T21:39:11.364Z,89.88
2018-02-12T21:41:39.713Z,90.26
2018-02-12T21:44:08.034Z,90.83
2018-02-12T21:46:36.465Z,91.33
2018-02-12T21:49:04.842Z,91.68
2018-02-12T21:51:33.230Z,92.09
2018-02-12T21:54:01.576Z,92.20
2018-02-12T21:56:29.977Z,92.13
2018-02-12T21:58:58.358Z,91.83
2018-02-12T22:01:26.682Z,91.74
2018-02-12T22:03:55.113Z,91.81
2018-02-12T22:06:23.485Z,91.92
2018-02-12T22:08:51.838Z,91.90
2018-02-12T22:11:20.237Z,91.79
2018-02-12T22:13:48.585Z,91.67
2018-02-12T22:16:17.879Z,91.44
2018-02-12T22:18:46.298Z,91.39
2018-02-12T22:21:14.626Z,91.29
2018-02-12T22:23:43.054Z,91.36
2018-02-12T22:26:11.385Z,91.40
2018-02-12T22:28:39.733Z,91.46
2018-02-12T22:31:08.088Z,91.78
2018-02-12T22:33:36.457Z,92.02
2018-02-12T22:36:04.833Z,92.06
2018-02-12T22:38:33.181Z,92.01
2018-02-12T22:41:01.596Z,92.15
2018-02-12T22:43:29.942Z,92.12
2018-02-12T22:45:58.286Z,92.00
2018-02-12T22:48:26.665Z,91.98
2018-02-12T22:50:55.098Z,92.02
2018-02-12T22:53:23.473Z,91.87
2018-02-12T22:55:51.806Z,91.86
2018-02-12T22:58:20.229Z,91.91
2018-02-12T23:00:48.565Z,91.90
2018-02-12T23:03:16.985Z,91.55
2018-02-12T23:05:45.465Z,91.53
2018-02-12T23:08:13.794Z,91.61
2018-02-12T23:10:42.222Z,91.63
2018-02-12T23:13:10.571Z,91.62
2018-02-12T23:15:38.889Z,91.71
2018-02-12T23:18:07.233Z,91.49
2018-02-12T23:20:35.564Z,91.41
2018-02-12T23:23:03.902Z,91.10
2018-02-12T23:25:32.229Z,90.72
2018-02-12T23:28:00.648Z,90.39
2018-02-12T23:30:29.029Z,90.37
2018-02-12T23:32:57.404Z,90.38
2018-02-12T23:35:25.729Z,89.86
2018-02-12T23:37:54.074Z,90.14
2018-02-12T23:40:22.397Z,90.33
2018-02-12T23:42:50.816Z,90.76
2018-02-12T23:45:19.189Z,90.90
2018-02-12T23:47:47.569Z,90.68
2018-02-12T23:50:15.949Z,90.18
2018-02-12T23:52:44.325Z,90.14
2018-02-12T23:55:12.702Z,90.20
2018-02-12T23:57:41.034Z,90.56
